createdAt,value
2022-07-26T00:00:35.324Z,58.34
2022-07-26T00:05:43.147Z,58.97
2022-07-26T00:10:50.171Z,58.81
2022-07-26T00:15:52.950Z,58.71
2022-07-26T00:20:55.666Z,59.17
2022-07-26T00:25:58.032Z,59.16
2022-07-26T00:31:00.083Z,59.13
2022-07-26T00:36:02.650Z,59.06
2022-07-26T00:41:05.882Z,59.24
2022-07-26T00:46:08.075Z,59.37
2022-07-26T00:51:10.391Z,59.83
2022-07-26T00:56:14.901Z,59.90
2022-07-26T01:01:16.972Z,60.11
2022-07-26T01:06:26.698Z,60.14
2022-07-26T01:11:29.153Z,60.21
2022-07-26T01:16:31.108Z,60.25
2022-07-26T01:21:34.033Z,60.42
2022-07-26T01:26:35.915Z,60.47
2022-07-26T01:31:37.952Z,60.73
2022-07-26T01:36:40.083Z,61.03
2022-07-26T01:41:42.092Z,61.03
2022-07-26T01:46:44.042Z,61.36
2022-07-26T01:51:46.027Z,61.24
2022-07-26T01:56:49.426Z,61.10
2022-07-26T02:01:51.564Z,60.72
2022-07-26T02:06:53.501Z,61.33
2022-07-26T02:11:55.985Z,61.39
2022-07-26T02:16:59.633Z,61.44
2022-07-26T02:22:01.898Z,60.92
2022-07-26T02:27:04.808Z,61.24
2022-07-26T02:32:07.379Z,61.55
2022-07-26T02:37:09.263Z,61.60
2022-07-26T02:42:11.240Z,61.48
2022-07-26T02:47:13.128Z,61.47
2022-07-26T02:52:15.100Z,62.19
2022-07-26T02:57:17.082Z,61.99
2022-07-26T03:02:18.872Z,61.81
2022-07-26T03:07:20.725Z,61.97
2022-07-26T03:12:22.604Z,61.88
2022-07-26T03:17:24.630Z,61.72
2022-07-26T03:22:26.470Z,61.35
2022-07-26T03:27:28.462Z,61.35
2022-07-26T03:32:30.318Z,61.65
2022-07-26T03:37:45.982Z,61.49
2022-07-26T03:42:49.227Z,62.05
2022-07-26T03:47:51.012Z,61.83
2022-07-26T03:52:52.931Z,62.04
2022-07-26T03:57:54.768Z,62.13
2022-07-26T04:02:56.802Z,62.09
2022-07-26T04:07:58.717Z,61.72
2022-07-26T04:13:01.411Z,61.37
2022-07-26T04:18:03.418Z,61.51
2022-07-26T04:23:05.477Z,61.49
2022-07-26T04:28:14.334Z,61.15
2022-07-26T04:33:16.295Z,60.78
2022-07-26T04:38:18.274Z,61.01
2022-07-26T04:43:20.170Z,61.89
2022-07-26T04:48:22.040Z,61.81
2022-07-26T04:53:23.823Z,61.12
2022-07-26T04:58:25.906Z,60.53
2022-07-26T05:03:27.975Z,59.67
2022-07-26T05:08:29.749Z,59.88
2022-07-26T05:13:31.645Z,60.99
2022-07-26T05:18:45.650Z,59.69
2022-07-26T05:23:50.945Z,59.83
2022-07-26T05:28:53.947Z,59.34
2022-07-26T05:33:55.828Z,58.51
2022-07-26T05:38:57.707Z,57.95
2022-07-26T05:43:59.576Z,57.10
2022-07-26T05:49:01.445Z,56.29
2022-07-26T05:54:03.844Z,54.81
2022-07-26T05:59:05.732Z,54.25
2022-07-26T06:04:09.179Z,53.94
2022-07-26T06:09:11.425Z,53.60
2022-07-26T06:14:13.918Z,53.65
2022-07-26T06:19:16.816Z,53.04
2022-07-26T06:24:18.930Z,52.37
2022-07-26T06:29:21.900Z,52.64
2022-07-26T06:34:24.310Z,53.60
2022-07-26T06:39:26.163Z,54.65
2022-07-26T06:44:28.059Z,55.18
2022-07-26T06:49:30.100Z,55.08
2022-07-26T06:54:32.205Z,54.90
2022-07-26T06:59:34.540Z,55.29
2022-07-26T07:04:36.637Z,54.97
2022-07-26T07:09:39.171Z,56.18
2022-07-26T07:14:41.454Z,56.00
2022-07-26T07:19:43.336Z,56.06
2022-07-26T07:24:45.320Z,55.78
2022-07-26T07:29:48.724Z,55.94
2022-07-26T07:34:50.601Z,55.85
2022-07-26T07:39:52.486Z,56.16
2022-07-26T07:44:55.894Z,56.19
2022-07-26T07:49:57.775Z,57.13
2022-07-26T07:55:21.812Z,57.28
2022-07-26T08:00:27.266Z,57.90
2022-07-26T08:05:29.410Z,59.78
2022-07-26T08:10:31.519Z,61.22
2022-07-26T08:15:33.898Z,62.15
2022-07-26T08:20:35.803Z,63.03
2022-07-26T08:25:50.116Z,62.67
2022-07-26T08:30:58.386Z,62.45
2022-07-26T08:36:00.454Z,61.92
2022-07-26T08:41:02.421Z,63.08
2022-07-26T08:46:04.402Z,64.29
2022-07-26T08:51:10.994Z,65.35
2022-07-26T08:56:13.742Z,65.97
2022-07-26T09:01:17.063Z,65.97
2022-07-26T09:06:26.307Z,66.30
2022-07-26T09:11:33.090Z,67.24
2022-07-26T09:16:39.293Z,67.58
2022-07-26T09:21:41.912Z,67.61
2022-07-26T09:26:57.926Z,67.42
2022-07-26T09:32:21.928Z,66.96
2022-07-26T09:37:46.303Z,68.17
2022-07-26T09:43:02.023Z,68.97
2022-07-26T09:48:05.136Z,69.20
2022-07-26T09:53:08.743Z,69.28
2022-07-26T09:58:16.439Z,69.54
2022-07-26T10:03:18.402Z,70.15
2022-07-26T10:08:20.949Z,71.25
2022-07-26T10:13:23.976Z,72.13
2022-07-26T10:18:38.041Z,73.54
2022-07-26T10:23:47.582Z,73.95
2022-07-26T10:28:49.531Z,73.71
2022-07-26T10:33:53.956Z,73.35
2022-07-26T10:39:24.979Z,73.43
2022-07-26T10:44:29.725Z,74.36
2022-07-26T10:49:56.439Z,74.85
2022-07-26T10:55:02.929Z,75.64
2022-07-26T11:00:21.931Z,76.64
2022-07-26T11:05:30.691Z,76.96
2022-07-26T11:10:36.401Z,77.07
2022-07-26T11:15:42.651Z,76.61
2022-07-26T11:20:48.404Z,76.17
2022-07-26T11:26:05.800Z,75.12
2022-07-26T11:31:07.729Z,74.17
2022-07-26T11:36:10.810Z,74.18
2022-07-26T11:41:14.849Z,74.00
2022-07-26T11:46:18.435Z,73.93
2022-07-26T11:51:24.299Z,73.04
2022-07-26T11:56:30.399Z,71.34
2022-07-26T12:01:32.666Z,70.78
2022-07-26T12:06:38.849Z,70.67
2022-07-26T12:11:41.430Z,70.42
2022-07-26T12:16:44.658Z,69.19
2022-07-26T12:21:57.471Z,69.11
2022-07-26T12:27:20.554Z,69.38
2022-07-26T12:32:31.433Z,69.64
2022-07-26T12:37:40.906Z,68.69
2022-07-26T12:42:53.789Z,68.14
2022-07-26T12:48:03.161Z,67.81
2022-07-26T12:53:08.310Z,67.57
2022-07-26T12:58:10.217Z,66.79
2022-07-26T13:03:13.629Z,66.99
2022-07-26T13:08:15.604Z,67.26
2022-07-26T13:13:17.511Z,66.88
2022-07-26T13:18:19.460Z,66.47
2022-07-26T13:23:23.122Z,65.99
2022-07-26T13:28:28.749Z,65.69
2022-07-26T13:33:32.501Z,65.85
2022-07-26T13:38:34.964Z,65.93
2022-07-26T13:43:36.868Z,65.75
2022-07-26T13:48:52.491Z,65.50
2022-07-26T13:54:00.660Z,66.17
2022-07-26T13:59:02.592Z,65.96
2022-07-26T14:04:07.988Z,65.31
2022-07-26T14:09:11.132Z,65.04
2022-07-26T14:14:14.148Z,64.50
2022-07-26T14:19:17.439Z,64.07
2022-07-26T14:24:20.840Z,63.41
2022-07-26T14:29:22.928Z,63.03
2022-07-26T14:34:25.007Z,62.96
2022-07-26T14:39:27.192Z,62.87
2022-07-26T14:44:29.101Z,62.71
2022-07-26T14:49:31.071Z,63.21
2022-07-26T14:54:32.940Z,63.06
2022-07-26T14:59:34.796Z,63.09
2022-07-26T15:04:36.671Z,62.61
2022-07-26T15:09:38.677Z,62.32
2022-07-26T15:14:45.138Z,62.67
2022-07-26T15:19:47.031Z,62.65
2022-07-26T15:24:48.890Z,62.08
2022-07-26T15:29:50.958Z,61.78
2022-07-26T15:34:53.465Z,61.97
2022-07-26T15:39:55.754Z,62.26
2022-07-26T15:44:58.570Z,62.30
2022-07-26T15:50:00.835Z,62.17
2022-07-26T15:55:03.334Z,62.08
2022-07-26T16:00:10.935Z,62.08
2022-07-26T16:05:14.258Z,61.78
2022-07-26T16:10:16.352Z,61.65
2022-07-26T16:15:18.822Z,61.94
2022-07-26T16:20:20.847Z,61.80
2022-07-26T16:25:23.190Z,61.56
2022-07-26T16:30:26.743Z,61.83
2022-07-26T16:35:29.511Z,61.79
2022-07-26T16:40:31.398Z,61.89
2022-07-26T16:45:33.465Z,62.11
2022-07-26T16:50:35.443Z,61.90
2022-07-26T16:55:37.353Z,61.51
2022-07-26T17:00:39.268Z,60.90
2022-07-26T17:05:43.252Z,60.85
2022-07-26T17:10:45.824Z,60.98
2022-07-26T17:15:47.886Z,61.67
2022-07-26T17:20:50.047Z,61.78
2022-07-26T17:25:52.183Z,61.76
2022-07-26T17:30:54.076Z,62.13
2022-07-26T17:35:56.559Z,62.15
2022-07-26T17:41:04.273Z,62.51
2022-07-26T17:46:07.800Z,62.73
2022-07-26T17:51:10.265Z,63.21
2022-07-26T17:56:12.238Z,63.38
2022-07-26T18:01:14.817Z,63.37
2022-07-26T18:06:18.231Z,63.21
2022-07-26T18:11:20.226Z,62.91
2022-07-26T18:16:22.255Z,63.65
2022-07-26T18:21:25.606Z,63.94
2022-07-26T18:26:27.502Z,64.18
2022-07-26T18:31:29.570Z,64.04
2022-07-26T18:36:31.664Z,64.04
2022-07-26T18:41:36.519Z,64.77
2022-07-26T18:46:38.553Z,65.25
2022-07-26T18:51:41.080Z,65.29
2022-07-26T18:56:43.504Z,65.16
2022-07-26T19:01:45.384Z,65.26
2022-07-26T19:06:47.435Z,65.25
2022-07-26T19:11:51.870Z,65.54
2022-07-26T19:16:53.748Z,65.94
2022-07-26T19:21:55.649Z,66.17
2022-07-26T19:26:57.910Z,66.29
2022-07-26T19:32:00.206Z,66.74
2022-07-26T19:37:03.096Z,66.90
2022-07-26T19:42:05.283Z,67.02
2022-07-26T19:47:07.586Z,67.38
2022-07-26T19:52:11.630Z,68.24
2022-07-26T19:57:14.190Z,68.73
2022-07-26T20:02:17.137Z,68.76
2022-07-26T20:07:19.673Z,69.59
2022-07-26T20:12:22.520Z,70.04
2022-07-26T20:17:25.114Z,71.69
2022-07-26T20:22:27.179Z,72.54
2022-07-26T20:27:29.051Z,72.78
2022-07-26T20:32:31.023Z,73.38
2022-07-26T20:37:36.353Z,74.04
2022-07-26T20:42:40.379Z,74.78
2022-07-26T20:47:42.627Z,75.14
2022-07-26T20:52:44.977Z,75.75
2022-07-26T20:57:47.396Z,77.63
2022-07-26T21:02:52.089Z,78.23
2022-07-26T21:07:59.216Z,78.49
2022-07-26T21:13:01.802Z,78.08
2022-07-26T21:18:04.422Z,77.28
2022-07-26T21:23:16.746Z,77.11
2022-07-26T21:28:20.646Z,76.77
2022-07-26T21:33:25.603Z,76.71
2022-07-26T21:38:31.467Z,76.79
2022-07-26T21:43:33.670Z,76.75
2022-07-26T21:48:35.641Z,76.63
2022-07-26T21:53:37.610Z,76.43
2022-07-26T21:58:39.913Z,76.04
2022-07-26T22:03:42.700Z,76.13
2022-07-26T22:08:45.291Z,76.11
2022-07-26T22:13:47.165Z,75.83
2022-07-26T22:18:49.460Z,75.96
2022-07-26T22:23:51.459Z,75.96
2022-07-26T22:28:53.519Z,75.57
2022-07-26T22:33:55.504Z,75.00
2022-07-26T22:38:57.597Z,74.67
2022-07-26T22:43:59.762Z,74.43
2022-07-26T22:49:02.007Z,72.88
2022-07-26T22:54:04.753Z,71.78
2022-07-26T22:59:06.655Z,70.26
2022-07-26T23:04:08.746Z,69.70
2022-07-26T23:09:11.380Z,68.93
2022-07-26T23:14:14.003Z,69.04
2022-07-26T23:19:15.984Z,68.68
2022-07-26T23:24:18.301Z,68.81
2022-07-26T23:29:20.151Z,68.54
2022-07-26T23:34:27.590Z,68.56
2022-07-26T23:39:29.731Z,68.68
2022-07-26T23:44:31.733Z,68.71
2022-07-26T23:49:33.608Z,68.90
2022-07-26T23:54:35.583Z,69.04
2022-07-26T23:59:37.590Z,68.94
